METAR Formatted Surface Weather Observation
Issued by NWS

Home | Current Version | Previous Version | Text Only | Print | Product List | Glossary On
Versions: 1 2 3 4 5 6 7 8 9 10 11 12
000
SAUS41 KLWX 201456
MTRNAK
METAR KNAK 201454Z AUTO 30010G18KT 10SM CLR 07/M04 A3019 RMK AO2
SLP226 T00671039 51019



USA.gov is the U.S. government's official web portal to all federal, state and local government web resources and services.